Time;durP1;ratioP1;P1;durP2;ratioP2;P2;SDS_P1;SDS_P2;PMS_P1;PMS_P2;Temp;Humidity;BMP_temperature;BMP_pressure;BME280_temperature;BME280_humidity;BME280_pressure;Samples;Min_cycle;Max_cycle;Signal;HPM_P1;HPM_P2
2022/06/30 00:00:08;;;;;;;29.52;26.33;;;;;;;21.17;68.83;101019.81;5010528;28;20421;-63
2022/06/30 00:02:34;;;;;;;33.90;27.17;;;;;;;21.15;68.96;101014.53;5008516;28;20045;-63
2022/06/30 00:04:59;;;;;;;29.90;26.05;;;;;;;21.11;69.41;101010.19;5008582;28;20053;-63
2022/06/30 00:07:25;;;;;;;32.00;25.98;;;;;;;21.06;69.19;101011.16;5007733;28;20169;-63
2022/06/30 00:09:50;;;;;;;30.85;25.80;;;;;;;21.01;69.61;101012.13;5011855;28;20029;-63
2022/06/30 00:12:15;;;;;;;28.58;25.15;;;;;;;21.01;69.16;101006.84;5007697;28;20033;-63
2022/06/30 00:14:41;;;;;;;29.98;26.20;;;;;;;20.97;69.19;101005.13;5009954;28;20036;-63
2022/06/30 00:17:07;;;;;;;30.52;26.88;;;;;;;20.94;69.23;101001.66;5011761;28;20077;-61
2022/06/30 00:19:34;;;;;;;29.92;25.90;;;;;;;20.90;69.72;100999.94;5009922;28;20381;-61
2022/06/30 00:22:00;;;;;;;30.85;25.17;;;;;;;20.86;69.23;100999.16;5010511;28;20030;-61
2022/06/30 00:24:25;;;;;;;31.98;26.77;;;;;;;20.84;69.58;100993.88;5008729;28;20091;-61
2022/06/30 00:26:51;;;;;;;28.73;25.00;;;;;;;20.80;69.46;100994.81;5008686;28;20041;-61
2022/06/30 00:29:16;;;;;;;30.63;25.38;;;;;;;20.79;69.17;100989.56;5008143;28;20408;-61
2022/06/30 00:31:41;;;;;;;33.65;26.23;;;;;;;20.76;69.78;100986.97;5008677;28;20057;-61
2022/06/30 00:34:07;;;;;;;31.75;25.63;;;;;;;20.71;69.37;100986.16;5008473;28;20255;-61
2022/06/30 00:36:32;;;;;;;34.40;26.13;;;;;;;20.66;69.52;100984.44;5009035;28;20065;-61
2022/06/30 00:38:57;;;;;;;31.63;25.65;;;;;;;20.66;69.78;100994.13;5011193;28;20034;-61
2022/06/30 00:41:23;;;;;;;31.63;25.80;;;;;;;20.64;68.93;100986.22;5008393;28;20037;-61
2022/06/30 00:43:48;;;;;;;37.00;26.42;;;;;;;20.63;68.82;100978.31;5007167;28;20547;-61
2022/06/30 00:46:15;;;;;;;30.92;25.45;;;;;;;20.58;69.20;100994.25;5000768;28;20029;-63
2022/06/30 00:48:42;;;;;;;36.60;26.55;;;;;;;20.55;69.23;100988.13;5007531;28;20018;-63
2022/06/30 00:51:08;;;;;;;35.42;26.48;;;;;;;20.53;69.22;100989.94;5009947;28;20044;-63
2022/06/30 00:53:36;;;;;;;30.73;26.00;;;;;;;20.46;69.17;100990.00;5020017;28;20053;-63
2022/06/30 00:56:06;;;;;;;31.70;25.92;;;;;;;20.43;69.39;100987.41;5005326;28;20028;-63
2022/06/30 00:58:37;;;;;;;34.00;26.30;;;;;;;20.40;69.53;100998.03;5007185;28;20111;-63
2022/06/30 01:01:04;;;;;;;32.72;26.13;;;;;;;20.37;69.92;100997.25;5007733;28;20114;-62
2022/06/30 01:03:31;;;;;;;60.13;28.42;;;;;;;20.34;69.66;100992.84;5007979;28;20081;-62
2022/06/30 01:05:57;;;;;;;32.05;26.00;;;;;;;20.33;69.83;100988.44;5006535;28;20413;-62
2022/06/30 01:08:23;;;;;;;32.58;26.30;;;;;;;20.31;69.30;100991.13;5009968;28;20445;-63
2022/06/30 01:13:35;;;;;;;33.90;24.55;;;;;;;20.26;69.66;100994.72;5008967;28;20492;-62
2022/06/30 01:16:01;;;;;;;33.30;25.73;;;;;;;20.23;69.18;100984.19;5010669;28;20349;-62
2022/06/30 01:18:26;;;;;;;33.42;25.52;;;;;;;20.20;69.50;100995.69;5009433;28;20275;-62
2022/06/30 01:20:52;;;;;;;32.67;25.23;;;;;;;20.20;69.04;100989.53;5010530;28;20021;-62
2022/06/30 01:23:18;;;;;;;33.83;25.73;;;;;;;20.19;69.53;101003.66;5009040;28;20037;-62
2022/06/30 01:25:44;;;;;;;33.45;27.05;;;;;;;20.15;69.95;100995.75;5006803;28;20033;-63
2022/06/30 01:28:10;;;;;;;31.13;26.48;;;;;;;20.10;69.43;100997.59;5002197;28;20034;-62
2022/06/30 01:30:35;;;;;;;34.13;27.40;;;;;;;20.06;70.49;100997.63;5017096;28;20040;-62
2022/06/30 01:33:01;;;;;;;77.20;28.33;;;;;;;20.06;70.24;101001.19;5004608;28;20059;-62
2022/06/30 01:35:26;;;;;;;33.55;26.70;;;;;;;20.04;70.07;100997.66;5007016;28;20397;-63
2022/06/30 01:37:57;;;;;;;34.00;26.35;;;;;;;20.02;69.89;101004.75;5007049;28;20021;-62
2022/06/30 01:40:24;;;;;;;33.88;26.55;;;;;;;19.96;70.49;101004.84;4999523;28;20025;-62
2022/06/30 01:42:50;;;;;;;33.33;27.92;;;;;;;19.93;70.83;101012.81;5009481;28;20022;-62
2022/06/30 01:45:16;;;;;;;31.35;26.40;;;;;;;19.89;70.64;101011.09;5010693;28;20037;-62
2022/06/30 01:47:41;;;;;;;32.20;27.90;;;;;;;19.85;70.46;101002.31;5007703;28;20052;-62
2022/06/30 01:50:11;;;;;;;31.30;26.98;;;;;;;19.83;70.58;101006.75;5008664;28;20034;-62
2022/06/30 01:52:36;;;;;;;32.90;26.67;;;;;;;19.75;70.87;101008.59;5008224;28;20056;-62
2022/06/30 01:55:02;;;;;;;35.97;26.02;;;;;;;19.77;70.56;101006.81;5008659;28;20053;-62
2022/06/30 01:57:28;;;;;;;33.38;27.35;;;;;;;19.73;70.33;101003.31;5004742;28;20087;-62
2022/06/30 01:59:53;;;;;;;33.22;27.52;;;;;;;19.63;70.70;100989.31;5008168;28;20053;-62
2022/06/30 02:02:18;;;;;;;34.40;26.38;;;;;;;19.64;70.69;101001.66;5008297;28;20053;-62
2022/06/30 02:04:46;;;;;;;35.90;26.90;;;;;;;19.62;70.54;100998.16;5008784;28;20128;-62
2022/06/30 02:07:12;;;;;;;36.63;27.10;;;;;;;19.59;71.07;101000.81;5005489;28;20551;-62
2022/06/30 02:09:39;;;;;;;33.90;27.30;;;;;;;19.56;70.89;100997.34;5008707;28;20486;-62
2022/06/30 02:14:49;;;;;;;32.65;27.48;;;;;;;19.48;70.89;101001.84;5008162;28;20076;-62
2022/06/30 02:17:15;;;;;;;36.40;27.85;;;;;;;19.46;71.38;101008.03;5007929;28;20026;-61
2022/06/30 02:19:40;;;;;;;37.03;27.88;;;;;;;19.44;70.88;101011.56;5009627;28;20044;-60
2022/06/30 02:22:05;;;;;;;37.67;29.50;;;;;;;19.41;71.05;101007.19;5009659;28;20396;-60
2022/06/30 02:24:31;;;;;;;38.28;27.35;;;;;;;19.38;70.68;101022.19;5009663;28;20037;-60
2022/06/30 02:26:56;;;;;;;37.97;26.95;;;;;;;19.36;70.42;101019.56;5007346;28;20066;-60
2022/06/30 02:29:21;;;;;;;33.92;26.45;;;;;;;19.34;70.40;101017.84;5008030;28;20088;-60
2022/06/30 02:31:47;;;;;;;37.38;26.80;;;;;;;19.30;70.65;101022.28;5006519;28;20021;-60
2022/06/30 02:34:12;;;;;;;35.58;28.13;;;;;;;19.25;70.92;101019.69;5007683;28;20010;-60
2022/06/30 02:36:37;;;;;;;34.10;27.92;;;;;;;19.22;70.85;101019.72;5007696;28;20432;-60
2022/06/30 02:39:03;;;;;;;35.88;27.48;;;;;;;19.21;70.66;101035.59;5007525;28;20444;-61
2022/06/30 02:41:28;;;;;;;35.55;26.95;;;;;;;19.18;70.50;101033.84;5009267;28;20210;-60
2022/06/30 02:43:53;;;;;;;36.25;28.23;;;;;;;19.15;70.99;101017.13;5010166;28;20054;-60
2022/06/30 02:46:19;;;;;;;37.42;29.42;;;;;;;19.06;71.68;101015.44;5011252;28;20104;-60
2022/06/30 02:48:44;;;;;;;40.80;29.20;;;;;;;19.07;71.02;101014.56;5012805;28;20552;-60
2022/06/30 02:51:10;;;;;;;38.72;29.17;;;;;;;19.05;71.11;101016.34;5010910;28;20633;-60
2022/06/30 02:53:35;;;;;;;34.35;28.38;;;;;;;19.05;71.44;101013.72;5012249;28;20034;-60
2022/06/30 02:56:00;;;;;;;35.33;28.02;;;;;;;19.02;71.32;101021.66;5012577;28;20418;-60
2022/06/30 02:58:26;;;;;;;36.78;27.60;;;;;;;19.01;71.05;101018.13;5011679;28;20382;-60
2022/06/30 03:00:51;;;;;;;35.80;28.30;;;;;;;18.98;71.47;101010.25;5013355;28;20084;-60
2022/06/30 03:03:17;;;;;;;38.65;28.85;;;;;;;18.96;71.05;101006.75;5010345;28;20036;-60
2022/06/30 03:05:42;;;;;;;34.60;27.83;;;;;;;18.92;71.58;101012.94;5012357;28;20049;-61
2022/06/30 03:08:07;;;;;;;36.85;27.73;;;;;;;18.91;71.53;101006.75;5011106;28;20037;-60
2022/06/30 03:10:33;;;;;;;36.67;29.17;;;;;;;18.87;71.81;101010.34;5011511;28;20031;-60
2022/06/30 03:12:58;;;;;;;37.40;28.60;;;;;;;18.86;71.84;101020.88;5010973;28;20109;-60
2022/06/30 03:15:23;;;;;;;38.45;28.38;;;;;;;18.83;71.39;101010.31;5011524;28;20477;-60
2022/06/30 03:17:48;;;;;;;31.85;27.10;;;;;;;18.76;72.16;101002.47;5010431;28;20029;-60
2022/06/30 03:20:14;;;;;;;34.80;27.27;;;;;;;18.73;71.88;101006.91;5011639;28;20033;-60
2022/06/30 03:22:39;;;;;;;38.78;28.52;;;;;;;18.71;71.97;101006.00;5011939;28;20029;-61
2022/06/30 03:25:05;;;;;;;36.95;27.27;;;;;;;18.66;72.34;101011.34;5011895;28;20030;-60
2022/06/30 03:27:30;;;;;;;32.80;26.52;;;;;;;18.65;72.19;101016.63;5012079;28;20080;-62
2022/06/30 03:29:55;;;;;;;34.17;26.85;;;;;;;18.62;71.51;101012.25;5012618;28;20029;-62
2022/06/30 03:32:20;;;;;;;34.92;28.55;;;;;;;18.55;71.89;101005.25;5010259;28;20080;-62
2022/06/30 03:34:46;;;;;;;33.95;28.10;;;;;;;18.53;72.04;101002.63;5011818;28;20033;-62
2022/06/30 03:37:11;;;;;;;37.80;28.58;;;;;;;18.53;71.90;101001.75;5011174;28;20036;-63
2022/06/30 03:39:36;;;;;;;34.35;27.90;;;;;;;18.45;72.53;100995.66;5009189;28;20143;-63
2022/06/30 03:42:02;;;;;;;35.88;28.48;;;;;;;18.46;72.28;101011.47;5011789;28;20038;-63
2022/06/30 03:44:27;;;;;;;37.10;28.50;;;;;;;18.42;72.67;101002.72;5010622;28;20037;-62
2022/06/30 03:46:53;;;;;;;37.92;28.40;;;;;;;18.40;72.39;101000.97;5009474;28;20037;-63
2022/06/30 03:49:18;;;;;;;42.63;30.02;;;;;;;18.37;72.50;101001.84;5007064;28;20025;-63
2022/06/30 03:51:43;;;;;;;39.55;29.40;;;;;;;18.36;72.82;101000.09;5009666;28;20030;-63
2022/06/30 03:54:09;;;;;;;37.42;28.63;;;;;;;18.33;72.65;100991.34;5011112;28;20473;-63
2022/06/30 03:56:34;;;;;;;37.35;28.73;;;;;;;18.33;72.52;101002.75;5011629;28;20508;-61
2022/06/30 03:58:59;;;;;;;38.05;29.08;;;;;;;18.30;72.79;100992.22;5010805;28;20554;-61
2022/06/30 04:01:25;;;;;;;39.40;29.58;;;;;;;18.27;73.12;100986.09;5009832;28;20034;-61
2022/06/30 04:03:50;;;;;;;37.03;28.67;;;;;;;18.25;73.14;100986.13;5010726;28;20531;-61
2022/06/30 04:06:15;;;;;;;35.42;27.48;;;;;;;18.22;73.51;100991.41;5009683;28;20029;-61
2022/06/30 04:08:41;;;;;;;38.70;30.85;;;;;;;18.16;73.66;100987.03;5011254;28;20109;-61
2022/06/30 04:11:06;;;;;;;39.38;29.55;;;;;;;18.10;74.24;100984.41;5007229;28;20084;-61
2022/06/30 04:13:31;;;;;;;39.40;28.02;;;;;;;18.08;74.39;100994.09;5007171;28;20021;-60
2022/06/30 04:15:57;;;;;;;38.90;29.55;;;;;;;18.06;74.09;100983.56;5010957;28;20643;-61
2022/06/30 04:18:22;;;;;;;33.92;28.15;;;;;;;18.06;74.20;100980.03;5010267;28;20037;-60
2022/06/30 04:20:47;;;;;;;36.45;28.27;;;;;;;18.02;74.56;100981.81;5008997;28;20540;-61
2022/06/30 04:23:13;;;;;;;36.28;28.15;;;;;;;18.03;74.52;100987.97;5011110;28;20053;-61
2022/06/30 04:25:38;;;;;;;41.63;31.40;;;;;;;17.96;75.42;100984.50;5008632;28;20393;-61
2022/06/30 04:28:04;;;;;;;38.10;30.65;;;;;;;17.98;75.34;100987.13;5008583;28;20034;-61
2022/06/30 04:33:14;;;;;;;46.55;33.28;;;;;;;17.95;75.68;100995.91;5010601;28;20113;-61
2022/06/30 04:35:39;;;;;;;41.78;32.35;;;;;;;17.98;75.38;101021.41;5006956;28;20116;-61
2022/06/30 04:38:05;;;;;;;45.67;32.33;;;;;;;17.96;75.78;101008.22;5008497;28;20747;-61
2022/06/30 04:43:15;;;;;;;40.85;30.50;;;;;;;18.00;75.62;101043.34;5009917;28;20107;-61
2022/06/30 04:45:41;;;;;;;43.80;29.95;;;;;;;17.98;76.56;101016.13;5010927;28;20025;-61
2022/06/30 04:48:06;;;;;;;48.58;34.17;;;;;;;17.94;77.15;101007.34;5007069;28;20026;-61
2022/06/30 04:50:31;;;;;;;51.08;36.35;;;;;;;17.95;76.83;101030.19;5007348;28;20029;-61
2022/06/30 04:52:57;;;;;;;51.63;37.28;;;;;;;17.94;77.78;101030.22;5010219;28;20029;-61
2022/06/30 04:55:23;;;;;;;49.22;36.70;;;;;;;17.95;77.60;101032.84;5011136;28;20025;-61
2022/06/30 04:57:48;;;;;;;46.00;37.38;;;;;;;17.96;77.49;101053.06;5010028;28;20030;-62
2022/06/30 05:00:14;;;;;;;53.65;39.35;;;;;;;17.94;77.74;101033.72;5009788;28;20041;-63
2022/06/30 05:02:39;;;;;;;53.42;40.65;;;;;;;17.90;78.42;101035.50;5008720;28;20030;-62
2022/06/30 05:05:05;;;;;;;56.00;40.80;;;;;;;17.92;78.50;101053.06;5003934;28;20104;-63
2022/06/30 05:07:30;;;;;;;57.33;43.45;;;;;;;17.89;78.50;101032.84;5008420;28;20049;-63
2022/06/30 05:09:56;;;;;;;54.50;42.08;;;;;;;17.88;78.80;101041.63;5005805;28;20092;-62
2022/06/30 05:12:21;;;;;;;54.63;42.35;;;;;;;17.88;78.84;101045.13;5008802;28;20061;-63
2022/06/30 05:14:47;;;;;;;60.55;43.70;;;;;;;17.89;79.05;101040.75;5008426;28;20030;-62
2022/06/30 05:17:12;;;;;;;61.40;43.78;;;;;;;17.88;79.32;101042.47;5008525;28;20079;-63
2022/06/30 05:19:38;;;;;;;57.92;42.80;;;;;;;17.93;78.69;101036.34;5008779;28;20022;-63
2022/06/30 05:22:04;;;;;;;60.95;43.92;;;;;;;17.95;78.62;101042.50;5005630;28;20022;-62
2022/06/30 05:27:13;;;;;;;62.90;45.10;;;;;;;17.95;79.51;101045.16;5010508;28;20125;-60
2022/06/30 05:29:38;;;;;;;64.82;44.42;;;;;;;17.96;79.12;101041.59;5008732;28;20101;-61
2022/06/30 05:32:04;;;;;;;61.72;43.20;;;;;;;17.98;79.06;101042.50;5008368;28;20028;-61
2022/06/30 05:34:30;;;;;;;67.13;46.95;;;;;;;17.99;80.05;101041.63;5003597;28;20033;-61
2022/06/30 05:36:55;;;;;;;63.70;45.22;;;;;;;18.02;79.25;101033.69;5006361;28;20477;-61
2022/06/30 05:39:20;;;;;;;71.82;46.42;;;;;;;18.04;79.62;101048.59;5009646;28;20053;-60
2022/06/30 05:41:45;;;;;;;64.05;45.15;;;;;;;18.03;78.72;101046.88;5008742;28;20033;-61
2022/06/30 05:44:11;;;;;;;68.55;44.63;;;;;;;17.99;79.90;101052.16;5006123;28;20041;-61
2022/06/30 05:46:36;;;;;;;66.93;44.95;;;;;;;18.00;79.47;101041.63;5005995;28;20108;-61
2022/06/30 05:49:02;;;;;;;65.65;42.75;;;;;;;18.02;78.91;101036.34;5002974;28;20035;-61
2022/06/30 05:51:28;;;;;;;71.18;44.95;;;;;;;18.00;80.31;101049.53;5006966;28;20018;-61
2022/06/30 05:53:53;;;;;;;65.00;43.78;;;;;;;18.02;79.83;101045.09;5007308;28;20021;-61
2022/06/30 05:56:19;;;;;;;64.82;41.42;;;;;;;18.01;79.34;101051.25;5007740;28;20355;-60
2022/06/30 05:58:45;;;;;;;56.97;39.55;;;;;;;18.04;79.22;101047.75;5005710;28;20057;-60
2022/06/30 06:01:10;;;;;;;54.13;37.10;;;;;;;18.07;79.17;101056.53;5005973;28;20112;-61
2022/06/30 06:03:36;;;;;;;54.63;36.67;;;;;;;18.13;79.43;101045.06;5005915;28;20144;-61
2022/06/30 06:06:01;;;;;;;54.78;35.88;;;;;;;18.13;78.80;101052.09;5003608;28;20486;-61
2022/06/30 06:08:26;;;;;;;50.85;34.75;;;;;;;18.16;79.45;101049.44;5015937;28;20033;-60
2022/06/30 06:10:52;;;;;;;50.67;34.17;;;;;;;18.23;79.01;101041.50;5014777;28;20400;-61
2022/06/30 06:13:17;;;;;;;49.97;32.40;;;;;;;18.29;78.31;101051.13;5010116;28;20069;-61
2022/06/30 06:15:42;;;;;;;48.63;31.70;;;;;;;18.30;78.50;101057.31;5003836;28;20021;-61
2022/06/30 06:18:08;;;;;;;44.75;31.85;;;;;;;18.32;78.40;101060.78;5006673;28;20077;-61
2022/06/30 06:20:33;;;;;;;42.30;30.65;;;;;;;18.35;78.19;101064.31;5009368;28;20030;-61
2022/06/30 06:22:58;;;;;;;48.95;30.88;;;;;;;18.42;77.88;101062.50;5015266;28;20073;-61
2022/06/30 06:25:24;;;;;;;40.60;30.52;;;;;;;18.47;77.93;101071.28;5009558;28;20026;-61
2022/06/30 06:30:34;;;;;;;45.03;29.02;;;;;;;18.59;78.11;101062.41;5004909;28;20674;-63
2022/06/30 06:33:00;;;;;;;44.13;28.77;;;;;;;18.67;78.50;101076.44;5008122;28;20037;-63
2022/06/30 06:35:25;;;;;;;45.15;28.00;;;;;;;18.74;77.92;101074.63;5002542;28;20037;-63
2022/06/30 06:37:51;;;;;;;42.15;25.95;;;;;;;18.77;77.40;101072.84;5012691;28;20381;-64
2022/06/30 06:40:16;;;;;;;39.22;26.35;;;;;;;18.83;77.67;101077.22;5007450;28;20075;-63
2022/06/30 06:42:41;;;;;;;41.65;26.33;;;;;;;18.89;77.36;101078.97;5009878;28;20076;-63
2022/06/30 06:45:07;;;;;;;41.00;25.45;;;;;;;18.94;77.44;101078.06;5007936;28;20408;-62
2022/06/30 06:47:32;;;;;;;35.20;24.35;;;;;;;19.03;77.15;101081.50;5010167;28;20033;-63
2022/06/30 06:49:58;;;;;;;38.85;23.90;;;;;;;19.10;77.49;101084.09;5005263;28;20037;-62
2022/06/30 06:52:24;;;;;;;38.60;24.45;;;;;;;19.16;76.97;101087.56;5020877;28;20040;-62
2022/06/30 06:54:49;;;;;;;36.20;23.48;;;;;;;19.23;77.84;101083.97;5008242;28;20033;-62
2022/06/30 06:57:15;;;;;;;37.90;23.17;;;;;;;19.27;76.65;101083.06;5005698;28;20033;-61
2022/06/30 06:59:40;;;;;;;37.80;22.33;;;;;;;19.33;76.65;101084.78;5007923;28;20033;-61
2022/06/30 07:02:06;;;;;;;36.80;21.52;;;;;;;19.38;76.53;101086.50;5008676;28;20069;-61
2022/06/30 07:04:32;;;;;;;37.35;20.50;;;;;;;19.45;76.56;101089.94;5008438;28;20065;-60
2022/06/30 07:06:57;;;;;;;37.47;22.27;;;;;;;19.48;76.82;101089.94;5009645;28;20619;-60
2022/06/30 07:09:22;;;;;;;35.03;20.30;;;;;;;19.54;75.82;101091.66;5010078;28;20032;-60
2022/06/30 07:11:48;;;;;;;31.75;19.77;;;;;;;19.58;76.55;101101.28;5011652;28;20025;-61
2022/06/30 07:14:13;;;;;;;39.00;20.40;;;;;;;19.62;75.74;101103.91;5006911;28;20386;-60
2022/06/30 07:16:39;;;;;;;37.35;20.50;;;;;;;19.66;76.35;101106.50;5009464;28;20053;-60
2022/06/30 07:19:04;;;;;;;36.67;19.52;;;;;;;19.73;76.27;101106.44;5015775;28;20053;-60
2022/06/30 07:21:30;;;;;;;34.78;20.27;;;;;;;19.81;76.98;101111.66;5008992;28;20112;-60
2022/06/30 07:23:55;;;;;;;34.28;19.13;;;;;;;19.88;75.82;101116.00;5011736;28;20033;-60
2022/06/30 07:26:21;;;;;;;52.83;33.35;;;;;;;19.90;74.89;101119.50;5014293;28;20327;-61
2022/06/30 07:28:47;;;;;;;54.75;38.10;;;;;;;19.92;74.66;101120.34;5006986;28;20359;-60
2022/06/30 07:31:13;;;;;;;37.72;18.45;;;;;;;19.96;75.08;101123.88;5022188;28;20363;-60
2022/06/30 07:33:39;;;;;;;34.55;17.83;;;;;;;20.01;75.87;101111.44;5007899;28;20029;-60
2022/06/30 07:36:05;;;;;;;33.65;17.83;;;;;;;20.06;75.11;101114.94;5008540;28;20025;-60
2022/06/30 07:38:30;;;;;;;35.47;18.13;;;;;;;20.10;75.61;101106.06;5012823;28;20449;-60
2022/06/30 07:40:56;;;;;;;34.13;17.23;;;;;;;20.18;75.57;101105.09;5008682;28;20077;-61
2022/06/30 07:43:21;;;;;;;33.63;17.30;;;;;;;20.24;75.65;101100.59;5021535;28;20029;-61
2022/06/30 07:45:46;;;;;;;31.95;16.77;;;;;;;20.30;74.89;101108.44;5009478;28;20036;-60
2022/06/30 07:48:12;;;;;;;28.17;16.17;;;;;;;20.36;74.71;101118.09;5017756;28;20396;-61
2022/06/30 07:50:37;;;;;;;27.90;15.23;;;;;;;20.40;74.46;101124.22;5010289;28;20040;-61
2022/06/30 07:53:02;;;;;;;28.83;15.70;;;;;;;20.47;74.15;101125.91;5016526;28;20104;-61
2022/06/30 07:55:28;;;;;;;29.13;16.10;;;;;;;20.52;74.35;101121.41;5010818;28;20484;-61
2022/06/30 07:57:53;;;;;;;33.53;15.88;;;;;;;20.58;74.25;101121.34;5021873;28;20029;-64
2022/06/30 08:00:24;;;;;;;28.55;14.52;;;;;;;20.68;75.21;101124.75;5014623;28;20091;-64
2022/06/30 08:02:49;;;;;;;30.13;16.05;;;;;;;20.78;75.46;101122.84;5021182;28;20104;-65
2022/06/30 08:05:15;;;;;;;27.52;14.27;;;;;;;20.87;75.17;101120.09;5019974;28;20153;-64
2022/06/30 08:07:40;;;;;;;27.25;12.95;;;;;;;20.95;75.50;101123.47;5012343;28;20030;-64
2022/06/30 08:10:06;;;;;;;25.30;12.07;;;;;;;21.03;74.47;101115.44;5012341;28;20087;-64
2022/06/30 08:12:33;;;;;;;26.20;13.00;;;;;;;21.13;74.68;101117.03;5015003;28;20029;-64
2022/06/30 08:14:58;;;;;;;26.92;14.02;;;;;;;21.19;73.21;101119.59;5024771;28;20025;-63
2022/06/30 08:17:24;;;;;;;27.42;13.75;;;;;;;21.24;74.54;101119.50;5013456;28;20022;-63
2022/06/30 08:19:49;;;;;;;32.53;12.93;;;;;;;21.29;72.66;101119.41;5014208;28;20021;-64
2022/06/30 08:22:14;;;;;;;22.23;12.20;;;;;;;21.35;72.54;101114.91;5018347;28;20033;-63
2022/06/30 08:24:40;;;;;;;22.27;12.48;;;;;;;21.40;71.76;101108.66;5017801;28;20025;-64
2022/06/30 08:27:05;;;;;;;22.23;12.52;;;;;;;21.47;72.84;101119.13;5013201;28;20117;-61
2022/06/30 08:29:34;;;;;;;23.02;12.00;;;;;;;21.53;71.26;101119.03;5014481;28;20085;-61
2022/06/30 08:32:03;;;;;;;18.80;10.80;;;;;;;21.59;70.82;101120.72;5000937;28;20048;-60
2022/06/30 08:34:28;;;;;;;19.15;11.10;;;;;;;21.64;70.44;101129.47;5009810;28;20042;-60
2022/06/30 08:36:54;;;;;;;16.00;10.27;;;;;;;21.68;68.71;101133.81;5007402;28;20381;-60
2022/06/30 08:42:06;;;;;;;18.90;10.18;;;;;;;21.79;71.12;101122.13;5005681;28;20122;-60
2022/06/30 08:44:34;;;;;;;21.90;10.68;;;;;;;21.86;69.39;101121.13;5003947;28;20034;-60
2022/06/30 08:47:00;;;;;;;18.38;10.98;;;;;;;21.95;69.28;101120.06;5005766;28;20030;-58
2022/06/30 08:49:26;;;;;;;18.80;10.18;;;;;;;21.99;69.74;101113.81;5005883;28;20036;-60
2022/06/30 08:51:55;;;;;;;18.30;10.25;;;;;;;22.08;67.96;101112.75;5003601;28;20014;-59
2022/06/30 08:54:22;;;;;;;17.60;10.10;;;;;;;22.16;68.50;101118.75;5006626;28;20041;-60
2022/06/30 08:56:49;;;;;;;20.65;10.82;;;;;;;22.19;68.14;101118.72;5004566;28;20033;-60
2022/06/30 08:59:16;;;;;;;19.55;10.35;;;;;;;22.26;67.05;101124.75;5005687;28;20034;-62
2022/06/30 09:01:41;;;;;;;22.77;10.07;;;;;;;22.32;67.92;101124.63;5004579;28;20038;-62
2022/06/30 09:04:10;;;;;;;19.80;9.60;;;;;;;22.39;68.51;101135.13;5021332;28;20037;-64
2022/06/30 09:06:35;;;;;;;19.33;10.13;;;;;;;22.50;69.70;101132.22;5008874;28;20029;-58
2022/06/30 09:09:01;;;;;;;20.20;9.80;;;;;;;22.56;68.04;101131.22;5002018;28;20030;-63
2022/06/30 09:11:56;;;;;;;21.25;9.57;;;;;;;22.60;67.09;101127.59;5008039;28;20472;-60
2022/06/30 09:14:39;;;;;;;18.45;9.20;;;;;;;22.66;65.97;101122.16;5009009;28;20420;-61
2022/06/30 09:17:22;;;;;;;17.33;9.48;;;;;;;22.69;64.56;101130.03;5008407;28;20415;-60
2022/06/30 09:19:58;;;;;;;17.88;9.50;;;;;;;22.74;64.77;101130.81;5011565;28;20022;-63
2022/06/30 09:22:34;;;;;;;18.77;9.50;;;;;;;22.82;65.77;101132.44;5012113;28;20037;-63
2022/06/30 09:25:18;;;;;;;17.33;9.77;;;;;;;22.88;65.97;101134.94;5013570;28;20029;-58
2022/06/30 09:27:44;;;;;;;17.00;10.15;;;;;;;22.92;65.03;101126.84;5021410;28;20033;-58
2022/06/30 09:30:12;;;;;;;18.20;11.20;;;;;;;22.94;64.54;101137.44;5018584;28;20109;-59
2022/06/30 09:33:04;;;;;;;19.83;10.70;;;;;;;23.01;65.59;101131.09;5009237;28;20033;-58
2022/06/30 09:35:30;;;;;;;18.95;9.10;;;;;;;23.11;65.04;101138.88;5010322;28;20037;-58
2022/06/30 09:38:04;;;;;;;18.00;9.35;;;;;;;23.20;65.16;101141.31;5010077;28;20029;-60
2022/06/30 09:40:34;;;;;;;16.23;9.32;;;;;;;23.26;64.94;101141.19;5010010;28;20032;-60
2022/06/30 09:43:00;;;;;;;17.50;8.35;;;;;;;23.31;63.87;101139.28;5010074;28;20400;-60
2022/06/30 09:45:39;;;;;;;17.08;8.20;;;;;;;23.40;65.31;101141.69;5009989;28;20500;-60
2022/06/30 09:48:05;;;;;;;18.98;9.93;;;;;;;23.46;63.17;101140.66;5009834;28;20121;-60
2022/06/30 09:50:31;;;;;;;19.23;9.10;;;;;;;23.54;65.17;101133.38;5009979;28;20044;-62
2022/06/30 09:53:05;;;;;;;16.38;8.63;;;;;;;23.62;64.48;101127.84;5011435;28;20392;-60
2022/06/30 09:55:38;;;;;;;20.25;9.32;;;;;;;23.67;63.96;101131.25;5007904;28;20037;-60
2022/06/30 09:58:04;;;;;;;16.10;7.30;;;;;;;23.71;64.96;101132.94;5016630;28;20026;-60
2022/06/30 10:00:29;;;;;;;16.90;8.07;;;;;;;23.78;65.59;101131.84;5010339;28;20626;-60
2022/06/30 10:03:04;;;;;;;16.60;8.20;;;;;;;23.84;66.06;101141.47;5010036;28;20101;-60
2022/06/30 10:05:30;;;;;;;15.43;8.55;;;;;;;23.90;61.41;101140.47;5010261;28;20497;-60
2022/06/30 10:07:56;;;;;;;16.95;8.23;;;;;;;23.98;63.58;101142.91;5009561;28;20033;-61
2022/06/30 10:10:22;;;;;;;16.42;8.30;;;;;;;24.06;62.91;101140.91;5003329;28;20038;-61
2022/06/30 10:12:48;;;;;;;15.23;8.55;;;;;;;24.13;63.70;101140.69;5005914;28;20017;-63
2022/06/30 10:15:14;;;;;;;19.88;8.93;;;;;;;24.19;62.14;101144.97;5004788;28;20516;-61
2022/06/30 10:17:46;;;;;;;15.18;8.50;;;;;;;24.22;61.31;101147.53;5013629;28;20040;-61
2022/06/30 10:20:12;;;;;;;17.13;8.93;;;;;;;24.26;60.10;101151.88;5010155;28;20036;-60
2022/06/30 10:22:39;;;;;;;21.13;15.65;;;;;;;24.32;61.59;101137.50;5007203;28;20477;-61
2022/06/30 10:25:05;;;;;;;16.65;10.20;;;;;;;24.42;63.67;101144.31;5008709;28;20508;-63
2022/06/30 10:27:31;;;;;;;13.75;7.63;;;;;;;24.46;60.92;101134.41;5007212;28;20127;-61
2022/06/30 10:30:01;;;;;;;14.27;7.32;;;;;;;24.58;62.79;101122.53;5016276;28;20116;-62
2022/06/30 10:33:02;;;;;;;15.32;7.80;;;;;;;24.62;61.19;101126.88;5007146;28;20834;-59
2022/06/30 10:35:41;;;;;;;13.15;7.43;;;;;;;24.72;62.70;101138.97;5009459;28;20045;-59
2022/06/30 10:38:21;;;;;;;15.32;8.27;;;;;;;24.74;60.04;101133.63;5005389;28;20025;-60
2022/06/30 10:41:05;;;;;;;18.45;8.20;;;;;;;24.71;60.32;101123.94;5003096;28;20044;-61
2022/06/30 10:43:30;;;;;;;12.88;7.28;;;;;;;24.72;60.28;101125.66;5002706;28;20042;-60
2022/06/30 10:45:58;;;;;;;11.68;7.38;;;;;;;24.78;60.10;101136.16;5004232;28;20038;-61
2022/06/30 10:48:24;;;;;;;12.20;6.53;;;;;;;24.85;59.18;101131.47;5002037;28;20018;-60
2022/06/30 10:50:51;;;;;;;13.90;7.50;;;;;;;24.89;59.55;101130.47;5004451;28;20037;-59
2022/06/30 10:53:38;;;;;;;13.57;7.65;;;;;;;24.93;59.19;101128.59;4998307;28;20038;-61
2022/06/30 10:56:04;;;;;;;13.02;6.80;;;;;;;25.06;60.59;101131.75;5006712;28;20034;-59
2022/06/30 10:58:30;;;;;;;13.57;8.93;;;;;;;25.15;60.15;101126.94;5015407;28;20028;-59
2022/06/30 11:00:55;;;;;;;52.25;22.15;;;;;;;25.22;54.98;101124.97;5007587;28;20038;-60
2022/06/30 11:03:30;;;;;;;11.83;6.93;;;;;;;25.23;57.65;101124.06;5005921;28;20113;-60
2022/06/30 11:05:58;;;;;;;13.02;7.80;;;;;;;25.25;58.58;101132.88;5009564;28;20517;-60
2022/06/30 11:08:36;;;;;;;15.65;7.35;;;;;;;25.24;57.63;101132.91;5009133;28;20026;-59
2022/06/30 11:11:19;;;;;;;11.98;7.40;;;;;;;25.22;56.92;101132.09;5007215;28;20571;-59
2022/06/30 11:13:45;;;;;;;13.00;6.55;;;;;;;25.18;58.58;101134.84;5008081;28;20029;-60
2022/06/30 11:16:15;;;;;;;8.57;5.85;;;;;;;25.18;57.83;101134.00;5006742;28;20084;-58
2022/06/30 11:18:40;;;;;;;10.77;6.00;;;;;;;25.16;57.70;101130.50;5007405;28;20029;-60
2022/06/30 11:21:06;;;;;;;13.32;6.10;;;;;;;25.20;58.46;101121.50;5004541;28;20034;-60
2022/06/30 11:23:39;;;;;;;34.70;25.65;;;;;;;25.22;58.64;101118.78;5012221;28;20026;-56
2022/06/30 11:28:51;;;;;;;10.93;6.80;;;;;;;25.29;57.48;101115.84;5002152;28;20520;-59
2022/06/30 11:31:36;;;;;;;9.18;5.95;;;;;;;25.31;58.84;101118.50;5008515;28;20026;-58